createdAt,value
2018-09-24T00:00:50.128Z,5.20
2018-09-24T00:03:19.028Z,5.20
2018-09-24T00:05:47.792Z,5.40
2018-09-24T00:08:16.996Z,5.30
2018-09-24T00:10:49.897Z,5.30
2018-09-24T00:13:19.444Z,5.70
2018-09-24T00:15:48.610Z,5.80
2018-09-24T00:18:17.369Z,5.90
2018-09-24T00:20:46.663Z,5.80
2018-09-24T00:23:15.416Z,5.70
2018-09-24T00:25:45.652Z,5.70
2018-09-24T00:28:14.487Z,5.60
2018-09-24T00:30:43.206Z,5.50
2018-09-24T00:33:14.015Z,5.50
2018-09-24T00:35:43.543Z,5.50
2018-09-24T00:38:15.276Z,5.60
2018-09-24T00:40:44.007Z,5.50
2018-09-24T00:43:13.299Z,5.50
2018-09-24T00:45:42.009Z,5.60
2018-09-24T00:48:11.214Z,5.70
2018-09-24T00:50:43.593Z,5.70
2018-09-24T00:53:12.476Z,5.70
2018-09-24T00:55:41.952Z,5.60
2018-09-24T00:58:11.164Z,5.60
2018-09-24T01:00:39.971Z,5.50
2018-09-24T01:03:08.707Z,5.40
2018-09-24T01:05:37.476Z,5.40
2018-09-24T01:08:07.186Z,5.30
2018-09-24T01:10:36.280Z,5.20
2018-09-24T01:13:06.539Z,5.10
2018-09-24T01:15:35.593Z,5.00
2018-09-24T01:18:04.673Z,5.00
2018-09-24T01:20:36.186Z,5.20
2018-09-24T01:23:05.346Z,5.30
2018-09-24T01:25:34.528Z,5.10
2018-09-24T01:28:03.820Z,4.90
2018-09-24T01:30:33.972Z,4.90
2018-09-24T01:33:07.103Z,4.90
2018-09-24T01:35:38.155Z,4.70
2018-09-24T01:38:07.373Z,4.70
2018-09-24T01:40:36.099Z,4.50
2018-09-24T01:43:05.067Z,4.50
2018-09-24T01:45:34.249Z,4.60
2018-09-24T01:48:04.244Z,4.40
2018-09-24T01:50:32.961Z,4.40
2018-09-24T01:53:07.370Z,4.40
2018-09-24T01:55:36.612Z,4.50
2018-09-24T01:58:06.211Z,4.40
2018-09-24T02:00:35.396Z,4.40
2018-09-24T02:03:04.112Z,4.40
2018-09-24T02:05:35.900Z,4.50
2018-09-24T02:08:04.684Z,4.50
2018-09-24T02:10:33.721Z,4.40
2018-09-24T02:13:05.737Z,4.40
2018-09-24T02:15:34.717Z,4.40
2018-09-24T02:18:05.497Z,4.20
2018-09-24T02:20:36.057Z,4.20
2018-09-24T02:23:05.304Z,4.10
2018-09-24T02:25:35.344Z,4.00
2018-09-24T02:28:04.760Z,4.20
2018-09-24T02:30:33.849Z,4.00
2018-09-24T02:33:08.470Z,4.10
2018-09-24T02:35:40.579Z,4.00
2018-09-24T02:38:12.881Z,4.00
2018-09-24T02:40:41.604Z,3.90
2018-09-24T02:43:11.873Z,4.00
2018-09-24T02:45:41.448Z,4.10
2018-09-24T02:48:10.837Z,4.00
2018-09-24T02:50:42.871Z,3.90
2018-09-24T02:53:12.471Z,4.00
2018-09-24T02:55:41.377Z,4.00
2018-09-24T02:58:17.784Z,3.90
2018-09-24T03:00:46.822Z,3.80
2018-09-24T03:03:16.512Z,3.80
2018-09-24T03:05:45.616Z,3.80
2018-09-24T03:08:15.910Z,3.80
2018-09-24T03:10:44.856Z,3.70
2018-09-24T03:13:13.659Z,3.70
2018-09-24T03:15:42.932Z,3.70
2018-09-24T03:18:12.083Z,3.70
2018-09-24T03:20:42.972Z,3.70
2018-09-24T03:23:13.818Z,3.70
2018-09-24T03:25:43.685Z,3.60
2018-09-24T03:28:15.545Z,3.60
2018-09-24T03:30:44.495Z,3.60
2018-09-24T03:33:16.093Z,3.60
2018-09-24T03:35:44.803Z,3.60
2018-09-24T03:38:14.036Z,3.60
2018-09-24T03:40:42.772Z,3.50
2018-09-24T03:43:11.745Z,3.50
2018-09-24T03:45:41.424Z,3.50
2018-09-24T03:48:10.808Z,3.60
2018-09-24T03:50:39.954Z,3.50
2018-09-24T03:53:09.235Z,3.50
2018-09-24T03:55:39.391Z,3.40
2018-09-24T03:58:08.627Z,3.40
2018-09-24T04:00:37.538Z,3.40
2018-09-24T04:03:07.178Z,3.40
2018-09-24T04:05:42.620Z,3.40
2018-09-24T04:08:16.732Z,3.40
2018-09-24T04:10:51.175Z,3.40
2018-09-24T04:13:26.451Z,3.40
2018-09-24T04:16:00.430Z,3.30
2018-09-24T04:18:35.614Z,3.30
2018-09-24T04:21:10.385Z,3.30
2018-09-24T04:23:44.479Z,3.30
2018-09-24T04:26:18.797Z,3.30
2018-09-24T04:28:54.303Z,3.30
2018-09-24T04:31:30.571Z,3.30
2018-09-24T04:34:04.598Z,3.30
2018-09-24T04:36:39.704Z,3.30
2018-09-24T04:39:14.434Z,3.30
2018-09-24T04:41:49.653Z,3.20
2018-09-24T04:44:23.799Z,3.20
2018-09-24T04:46:58.121Z,3.30
2018-09-24T04:49:33.287Z,3.20
2018-09-24T04:52:07.557Z,3.10
2018-09-24T04:54:42.022Z,3.10
2018-09-24T04:57:16.040Z,3.10
2018-09-24T04:59:50.071Z,3.20
2018-09-24T05:02:24.252Z,3.20
2018-09-24T05:04:58.280Z,3.10
2018-09-24T05:07:33.418Z,3.10
2018-09-24T05:10:07.626Z,2.90
2018-09-24T05:12:42.043Z,3.10
2018-09-24T05:15:16.397Z,2.90
2018-09-24T05:17:51.898Z,2.90
2018-09-24T05:20:28.259Z,2.80
2018-09-24T05:23:02.913Z,2.80
2018-09-24T05:25:37.696Z,2.80
2018-09-24T05:28:14.412Z,2.80
2018-09-24T05:30:48.723Z,2.70
2018-09-24T05:33:22.912Z,2.70
2018-09-24T05:35:56.891Z,2.70
2018-09-24T05:38:30.988Z,2.60
2018-09-24T05:41:04.982Z,2.60
2018-09-24T05:43:39.070Z,2.60
2018-09-24T05:46:13.628Z,2.60
2018-09-24T05:48:47.512Z,2.70
2018-09-24T05:51:21.419Z,2.80
2018-09-24T05:53:55.292Z,2.70
2018-09-24T05:56:29.418Z,2.80
2018-09-24T05:59:04.722Z,2.90
2018-09-24T06:01:40.971Z,2.90
2018-09-24T06:04:15.035Z,2.80
2018-09-24T06:06:52.176Z,2.70
2018-09-24T06:09:27.641Z,2.70
2018-09-24T06:12:01.936Z,2.70
2018-09-24T06:14:35.808Z,2.60
2018-09-24T06:17:09.919Z,2.60
2018-09-24T06:19:44.056Z,2.70
2018-09-24T06:22:20.129Z,2.70
2018-09-24T06:24:54.528Z,2.90
2018-09-24T06:27:30.290Z,3.00
2018-09-24T06:30:06.666Z,3.00
2018-09-24T06:32:44.509Z,3.10
2018-09-24T06:35:18.471Z,3.20
2018-09-24T06:37:52.635Z,3.20
2018-09-24T06:40:26.580Z,3.50
2018-09-24T06:43:00.771Z,3.70
2018-09-24T06:45:35.153Z,3.60
2018-09-24T06:48:13.572Z,3.60
2018-09-24T06:50:47.496Z,3.60
2018-09-24T06:53:21.915Z,3.80
2018-09-24T06:55:57.306Z,3.80
2018-09-24T06:58:31.141Z,4.10
2018-09-24T07:01:05.993Z,4.30
2018-09-24T07:03:40.594Z,4.40
2018-09-24T07:06:14.656Z,4.60
2018-09-24T07:08:51.089Z,4.70
2018-09-24T07:11:27.451Z,4.80
2018-09-24T07:14:01.921Z,4.90
2018-09-24T07:16:38.532Z,5.10
2018-09-24T07:19:13.073Z,5.40
2018-09-24T07:21:50.104Z,5.50
2018-09-24T07:24:24.208Z,5.50
2018-09-24T07:26:58.396Z,5.50
2018-09-24T07:29:33.349Z,5.50
2018-09-24T07:32:07.712Z,5.60
2018-09-24T07:34:41.860Z,5.70
2018-09-24T07:37:15.732Z,5.80
2018-09-24T07:39:49.812Z,6.00
2018-09-24T07:42:23.828Z,6.00
2018-09-24T07:44:57.923Z,6.00
2018-09-24T07:47:32.248Z,6.00
2018-09-24T07:50:07.506Z,6.10
2018-09-24T07:52:41.836Z,6.20
2018-09-24T07:55:16.088Z,6.20
2018-09-24T07:57:50.837Z,6.40
2018-09-24T08:00:25.809Z,6.40
2018-09-24T08:03:00.244Z,6.40
2018-09-24T08:05:34.114Z,6.60
2018-09-24T08:08:12.418Z,6.60
2018-09-24T08:10:47.802Z,6.80
2018-09-24T08:13:21.999Z,7.10
2018-09-24T08:15:56.153Z,7.20
2018-09-24T08:18:31.790Z,7.40
2018-09-24T08:21:07.299Z,7.60
2018-09-24T08:23:41.688Z,8.00
2018-09-24T08:26:15.604Z,8.00
2018-09-24T08:28:50.244Z,8.20
2018-09-24T08:31:24.186Z,8.20
2018-09-24T08:33:59.402Z,8.50
2018-09-24T08:36:34.469Z,8.60
2018-09-24T08:39:08.612Z,8.60
2018-09-24T08:41:43.028Z,8.70
2018-09-24T08:44:17.685Z,8.70
2018-09-24T08:46:52.291Z,8.60
2018-09-24T08:49:27.096Z,8.90
2018-09-24T08:52:01.079Z,9.10
2018-09-24T08:54:36.092Z,8.90
2018-09-24T08:57:11.407Z,9.00
2018-09-24T08:59:45.763Z,9.10
2018-09-24T09:02:20.512Z,9.10
2018-09-24T09:04:55.153Z,9.40
2018-09-24T09:07:30.716Z,9.50
2018-09-24T09:10:09.539Z,9.50
2018-09-24T09:12:43.738Z,9.40
2018-09-24T09:15:17.800Z,9.70
2018-09-24T09:17:53.132Z,9.80
2018-09-24T09:20:27.611Z,9.90
2018-09-24T09:23:02.329Z,10.00
2018-09-24T09:25:36.590Z,10.10
2018-09-24T09:28:11.389Z,10.30
2018-09-24T09:30:46.125Z,10.40
2018-09-24T09:33:20.498Z,10.30
2018-09-24T09:35:57.162Z,10.40
2018-09-24T09:38:31.520Z,10.50
2018-09-24T09:41:05.563Z,10.40
2018-09-24T09:43:42.692Z,10.30
2018-09-24T09:46:17.700Z,10.20
2018-09-24T09:48:51.748Z,10.60
2018-09-24T09:51:27.793Z,10.60
2018-09-24T09:54:03.497Z,10.70
2018-09-24T09:56:37.612Z,10.80
2018-09-24T09:59:11.837Z,10.80
2018-09-24T10:01:45.834Z,10.90
2018-09-24T10:04:19.881Z,10.80
2018-09-24T10:06:53.882Z,10.70
2018-09-24T10:09:27.795Z,11.10
2018-09-24T10:12:02.050Z,11.10
2018-09-24T10:14:36.197Z,11.20
2018-09-24T10:17:14.199Z,11.10
2018-09-24T10:19:48.677Z,11.30
2018-09-24T10:22:22.792Z,11.30
2018-09-24T10:24:56.794Z,11.40
2018-09-24T10:27:30.876Z,11.30
2018-09-24T10:30:04.962Z,11.50
2018-09-24T10:32:39.468Z,11.40
2018-09-24T10:35:13.317Z,11.20
2018-09-24T10:37:48.271Z,11.50
2018-09-24T10:40:24.074Z,11.40
2018-09-24T10:42:58.894Z,11.50
2018-09-24T10:45:32.990Z,11.50
2018-09-24T10:48:08.597Z,11.70
2018-09-24T10:50:43.735Z,11.70
2018-09-24T10:53:17.501Z,11.80
2018-09-24T10:55:51.503Z,11.70
2018-09-24T10:58:25.791Z,11.70
2018-09-24T11:00:59.789Z,11.90
2018-09-24T11:03:33.756Z,11.80
2018-09-24T11:06:07.924Z,11.80
2018-09-24T11:08:41.921Z,11.80
2018-09-24T11:11:16.301Z,12.00
2018-09-24T11:13:50.692Z,12.30
2018-09-24T11:16:24.828Z,12.30
2018-09-24T11:18:58.861Z,12.00
2018-09-24T11:21:33.073Z,12.10
2018-09-24T11:24:08.296Z,12.10
2018-09-24T11:26:43.763Z,12.10
2018-09-24T11:29:21.475Z,11.90
2018-09-24T11:31:55.421Z,12.00
2018-09-24T11:34:29.859Z,12.00
2018-09-24T11:37:04.264Z,12.20
2018-09-24T11:39:38.209Z,12.30
2018-09-24T11:42:12.073Z,12.20
2018-09-24T11:44:45.904Z,12.30
2018-09-24T11:47:20.123Z,12.50
2018-09-24T11:49:54.497Z,12.60
2018-09-24T11:52:28.745Z,12.80
2018-09-24T11:55:06.870Z,13.10
2018-09-24T11:57:46.089Z,13.20
2018-09-24T12:00:21.368Z,13.00
2018-09-24T12:02:55.565Z,12.80
2018-09-24T12:05:29.841Z,12.80
2018-09-24T12:08:03.819Z,12.90
2018-09-24T12:10:38.687Z,12.80
2018-09-24T12:13:12.862Z,12.60
2018-09-24T12:15:49.022Z,12.80
2018-09-24T12:18:23.173Z,13.00
2018-09-24T12:20:57.031Z,13.10
2018-09-24T12:23:33.072Z,13.00
2018-09-24T12:26:06.959Z,12.70
2018-09-24T12:28:42.776Z,12.60
2018-09-24T12:31:19.016Z,12.70
2018-09-24T12:33:54.400Z,12.90
2018-09-24T12:36:28.516Z,13.00
2018-09-24T12:39:03.611Z,12.80
2018-09-24T12:41:37.941Z,12.90
2018-09-24T12:44:13.025Z,12.70
2018-09-24T12:46:49.465Z,12.90
2018-09-24T12:49:25.672Z,13.10
2018-09-24T12:52:01.420Z,12.90
2018-09-24T12:54:35.534Z,13.00
2018-09-24T12:57:09.353Z,12.90
2018-09-24T12:59:43.732Z,12.70
2018-09-24T13:02:17.741Z,12.90
2018-09-24T13:04:52.272Z,12.80
2018-09-24T13:07:26.608Z,13.00
2018-09-24T13:10:00.776Z,12.70
2018-09-24T13:12:35.104Z,12.90
2018-09-24T13:15:09.656Z,12.90
2018-09-24T13:17:43.463Z,13.00
2018-09-24T13:20:17.532Z,12.80
2018-09-24T13:22:53.580Z,12.90
2018-09-24T13:25:27.728Z,12.90
2018-09-24T13:28:03.267Z,13.00
2018-09-24T13:30:37.832Z,13.10
2018-09-24T13:33:11.945Z,13.10
2018-09-24T13:35:45.896Z,12.90
2018-09-24T13:38:19.917Z,12.90
2018-09-24T13:40:53.916Z,12.90
2018-09-24T13:43:28.254Z,13.10
2018-09-24T13:46:02.696Z,13.20
2018-09-24T13:48:36.878Z,13.10
2018-09-24T13:51:17.395Z,13.50
2018-09-24T13:53:52.737Z,13.30
2018-09-24T13:56:27.052Z,13.40
2018-09-24T13:59:01.040Z,13.30
2018-09-24T14:01:35.156Z,13.40
2018-09-24T14:04:09.313Z,13.40
2018-09-24T14:06:43.444Z,13.40
2018-09-24T14:09:17.507Z,13.50
2018-09-24T14:11:51.591Z,13.40
2018-09-24T14:14:25.508Z,13.30
2018-09-24T14:16:59.973Z,13.30
2018-09-24T14:19:34.201Z,13.40
2018-09-24T14:22:09.323Z,13.50
2018-09-24T14:24:43.239Z,13.60
2018-09-24T14:27:17.808Z,13.60
2018-09-24T14:29:52.720Z,13.50
2018-09-24T14:32:28.128Z,13.50
2018-09-24T14:35:02.110Z,13.50
2018-09-24T14:37:36.436Z,13.20
2018-09-24T14:40:10.867Z,13.20
2018-09-24T14:42:47.901Z,13.40
2018-09-24T14:45:22.191Z,13.70
2018-09-24T14:47:58.057Z,13.70
2018-09-24T14:50:32.656Z,13.70
2018-09-24T14:53:06.768Z,13.50
2018-09-24T14:55:40.841Z,13.40
2018-09-24T14:58:14.741Z,13.40
2018-09-24T15:00:51.444Z,13.30
2018-09-24T15:03:30.359Z,13.60
2018-09-24T15:06:04.564Z,13.60
2018-09-24T15:08:39.178Z,13.40
2018-09-24T15:11:13.146Z,13.40
2018-09-24T15:13:47.020Z,13.40
2018-09-24T15:16:21.089Z,13.40
2018-09-24T15:18:55.695Z,13.50
2018-09-24T15:21:29.701Z,13.50
2018-09-24T15:24:03.659Z,13.50
2018-09-24T15:26:37.946Z,13.40
2018-09-24T15:29:18.928Z,13.50
2018-09-24T15:31:52.912Z,13.50
2018-09-24T15:34:26.912Z,13.60
2018-09-24T15:37:01.730Z,13.40
2018-09-24T15:39:36.865Z,13.50
2018-09-24T15:42:11.608Z,13.50
2018-09-24T15:44:46.303Z,13.40
2018-09-24T15:47:20.125Z,13.30
2018-09-24T15:49:54.124Z,13.50
2018-09-24T15:52:28.156Z,13.50
2018-09-24T15:55:02.421Z,13.50
2018-09-24T15:57:36.524Z,13.50
2018-09-24T16:00:11.149Z,13.40
2018-09-24T16:02:45.295Z,13.30
2018-09-24T16:05:21.821Z,13.40
2018-09-24T16:07:55.919Z,13.40
2018-09-24T16:10:30.253Z,13.30
2018-09-24T16:13:04.655Z,13.30
2018-09-24T16:15:40.009Z,13.40
2018-09-24T16:18:14.044Z,13.40
2018-09-24T16:20:48.460Z,13.30
2018-09-24T16:23:22.727Z,13.20
2018-09-24T16:26:04.342Z,13.40
2018-09-24T16:28:38.718Z,13.40
2018-09-24T16:31:12.957Z,13.20
2018-09-24T16:33:47.166Z,13.10
2018-09-24T16:36:21.736Z,13.00
2018-09-24T16:38:55.595Z,13.10
2018-09-24T16:41:29.448Z,13.10
2018-09-24T16:44:08.441Z,13.00
2018-09-24T16:46:42.445Z,12.90
2018-09-24T16:49:17.014Z,13.00
2018-09-24T16:51:51.257Z,12.70
2018-09-24T16:54:25.454Z,12.70
2018-09-24T16:56:59.561Z,12.70
2018-09-24T16:59:33.541Z,12.70
2018-09-24T17:02:07.592Z,12.70
2018-09-24T17:04:41.712Z,12.60
2018-09-24T17:07:16.024Z,12.30
2018-09-24T17:09:53.709Z,12.30
2018-09-24T17:12:28.318Z,12.10
2018-09-24T17:15:02.785Z,11.90
2018-09-24T17:17:36.676Z,11.80
2018-09-24T17:20:12.632Z,11.90
2018-09-24T17:22:47.981Z,12.10
2018-09-24T17:25:22.940Z,12.20
2018-09-24T17:27:56.914Z,11.80
2018-09-24T17:30:31.577Z,11.70
2018-09-24T17:33:06.010Z,11.40
2018-09-24T17:35:40.377Z,11.20
2018-09-24T17:38:16.808Z,11.50
2018-09-24T17:40:51.513Z,11.50
2018-09-24T17:43:31.487Z,11.60
2018-09-24T17:46:05.768Z,11.40
2018-09-24T17:48:39.844Z,11.30
2018-09-24T17:51:13.913Z,11.00
2018-09-24T17:53:48.025Z,10.60
2018-09-24T17:56:24.329Z,10.40
2018-09-24T17:58:58.742Z,10.30
2018-09-24T18:01:34.880Z,10.10
2018-09-24T18:04:09.161Z,10.00
2018-09-24T18:06:42.933Z,9.80
2018-09-24T18:09:16.915Z,9.70
2018-09-24T18:11:51.122Z,9.60
2018-09-24T18:14:26.105Z,9.50
2018-09-24T18:17:00.068Z,9.30
2018-09-24T18:19:35.121Z,9.20
2018-09-24T18:22:09.199Z,9.10
2018-09-24T18:24:43.380Z,9.00
2018-09-24T18:27:17.549Z,9.00
2018-09-24T18:29:51.748Z,8.80
2018-09-24T18:32:26.367Z,8.70
2018-09-24T18:35:00.249Z,8.70
2018-09-24T18:37:36.425Z,8.60
2018-09-24T18:40:15.571Z,8.50
2018-09-24T18:42:51.060Z,8.40
2018-09-24T18:45:43.661Z,8.30
2018-09-24T18:48:17.617Z,8.20
2018-09-24T18:50:51.539Z,8.10
2018-09-24T18:53:26.342Z,8.00
2018-09-24T18:56:08.390Z,7.90
2018-09-24T18:58:47.986Z,7.90
2018-09-24T19:01:25.677Z,7.90
2018-09-24T19:04:01.927Z,7.80
2018-09-24T19:06:36.327Z,7.80
2018-09-24T19:09:15.873Z,7.60
2018-09-24T19:11:59.918Z,7.60
2018-09-24T19:14:34.087Z,7.50
2018-09-24T19:17:20.544Z,7.40
2018-09-24T19:19:59.477Z,7.40
2018-09-24T19:22:34.092Z,7.40
2018-09-24T19:25:07.979Z,7.30
2018-09-24T19:27:46.283Z,7.20
2018-09-24T19:30:20.411Z,7.20
2018-09-24T19:32:54.918Z,7.10
2018-09-24T19:35:31.308Z,7.10
2018-09-24T19:38:12.505Z,7.10
2018-09-24T19:40:48.133Z,7.00
2018-09-24T19:43:23.052Z,6.90
2018-09-24T19:45:59.866Z,6.90
2018-09-24T19:48:33.870Z,6.80
2018-09-24T19:51:08.745Z,6.70
2018-09-24T19:53:44.320Z,6.70
2018-09-24T19:56:18.810Z,6.70
2018-09-24T19:58:54.321Z,6.60
2018-09-24T20:01:28.374Z,6.60
2018-09-24T20:04:03.932Z,6.50
2018-09-24T20:06:38.009Z,6.50
2018-09-24T20:09:15.012Z,6.40
2018-09-24T20:11:50.288Z,6.40
2018-09-24T20:14:24.475Z,6.30
2018-09-24T20:16:58.886Z,6.20
2018-09-24T20:19:32.957Z,6.10
2018-09-24T20:22:06.973Z,6.10
2018-09-24T20:24:40.989Z,6.10
2018-09-24T20:27:14.964Z,6.20
2018-09-24T20:29:48.928Z,6.10
2018-09-24T20:32:28.637Z,6.10
2018-09-24T20:35:05.004Z,6.10
2018-09-24T20:37:40.322Z,6.00
2018-09-24T20:40:15.164Z,6.00
2018-09-24T20:42:49.293Z,6.00
2018-09-24T20:45:23.829Z,5.90
2018-09-24T20:47:57.776Z,5.80
2018-09-24T20:50:31.916Z,5.70
2018-09-24T20:53:05.715Z,5.70
2018-09-24T20:55:39.584Z,5.70
2018-09-24T20:58:13.700Z,5.70
2018-09-24T21:00:47.976Z,5.60
2018-09-24T21:03:22.974Z,5.60
2018-09-24T21:06:00.585Z,5.40
2018-09-24T21:08:36.205Z,5.50
2018-09-24T21:11:12.108Z,5.50
2018-09-24T21:13:50.487Z,5.60
2018-09-24T21:16:25.791Z,5.60
2018-09-24T21:19:00.868Z,5.60
2018-09-24T21:21:34.956Z,5.60
2018-09-24T21:24:10.825Z,5.40
2018-09-24T21:26:46.296Z,5.40
2018-09-24T21:29:29.649Z,5.40
2018-09-24T21:32:03.556Z,5.30
2018-09-24T21:34:39.082Z,5.20
2018-09-24T21:37:15.069Z,5.20
2018-09-24T21:39:49.193Z,5.10
2018-09-24T21:42:23.238Z,5.10
2018-09-24T21:44:57.555Z,5.10
2018-09-24T21:47:31.696Z,5.00
2018-09-24T21:50:05.950Z,4.90
2018-09-24T21:52:40.298Z,4.80
2018-09-24T21:55:14.556Z,4.70
2018-09-24T21:57:48.783Z,4.80
2018-09-24T22:00:22.687Z,4.70
2018-09-24T22:02:56.863Z,4.80
2018-09-24T22:05:31.201Z,4.80
2018-09-24T22:08:06.541Z,4.80
2018-09-24T22:10:40.594Z,4.70
2018-09-24T22:13:17.646Z,4.70
2018-09-24T22:15:51.736Z,4.70
2018-09-24T22:18:29.252Z,4.80
2018-09-24T22:21:03.270Z,4.70
2018-09-24T22:23:37.185Z,4.60
2018-09-24T22:26:11.738Z,4.50
2018-09-24T22:28:45.659Z,4.50
2018-09-24T22:31:19.674Z,4.40
2018-09-24T22:33:53.576Z,4.40
2018-09-24T22:36:29.883Z,4.40
2018-09-24T22:39:04.458Z,4.30
2018-09-24T22:41:39.473Z,4.20
2018-09-24T22:44:13.485Z,4.30
2018-09-24T22:46:48.713Z,4.20
2018-09-24T22:49:24.063Z,4.10
2018-09-24T22:51:58.211Z,4.10
2018-09-24T22:54:32.261Z,4.20
2018-09-24T22:57:06.853Z,4.10
2018-09-24T22:59:40.860Z,4.00
2018-09-24T23:02:21.251Z,4.00
2018-09-24T23:04:55.324Z,4.00
2018-09-24T23:07:29.942Z,4.10
2018-09-24T23:10:04.148Z,4.10
2018-09-24T23:12:39.660Z,3.90
2018-09-24T23:15:14.246Z,3.90
2018-09-24T23:17:49.521Z,3.90
2018-09-24T23:20:24.516Z,3.80
2018-09-24T23:22:59.076Z,3.80
2018-09-24T23:25:33.405Z,3.70
2018-09-24T23:28:08.506Z,3.60
2018-09-24T23:30:42.543Z,3.60
2018-09-24T23:33:17.041Z,3.70
2018-09-24T23:35:51.178Z,3.60
2018-09-24T23:38:25.247Z,3.50
2018-09-24T23:40:59.272Z,3.40
2018-09-24T23:43:33.361Z,3.40
2018-09-24T23:46:07.738Z,3.30
2018-09-24T23:48:42.086Z,3.30
2018-09-24T23:51:16.360Z,3.30
2018-09-24T23:53:50.538Z,3.40
2018-09-24T23:56:24.551Z,3.30
2018-09-24T23:59:00.660Z,3.20
